Flight Track Log - Related Links

Times and Time Zones

All times are in EDT time to prevent confusion due to time zone crossing. See the SKW6330 flight status page for this flight to view local times or setup timezone preferences in your user account.

Time Position Orientation Groundspeed Altitude Reporting Facility
EDT Latitude Longitude Course Direction KTS MPH feet Rate Location/Type
Tue 07:22:07 PM 33.9500 -118.4500 320° Northwest 144 166 1,800  Level Southern California TRACON
Tue 07:22:34 PM 33.9503 -118.4794 271° West 153 176 2,300 1,146 Climbing Los Angeles Center
Tue 07:23:36 PM 33.9728 -118.5411 294° West 204 235 3,500 1,548 Climbing Los Angeles Center
Tue 07:24:38 PM 34.0069 -118.6017 304° West 202 232 5,500 1,645 Climbing Los Angeles Center
Tue 07:25:40 PM 34.0489 -118.6356 326° Northwest 191 220 6,900 774 Climbing Los Angeles Center
Tue 07:26:42 PM 34.1114 -118.6442 353° North 226 260 7,100 677 Climbing Los Angeles Center
Tue 07:27:00 PM 34.2204 -118.5537 320° Northwest  Level FlightAware Approximate
Tue 07:27:44 PM 34.1747 -118.6542 353° North 227 261 8,300  Level Los Angeles Center
Tue 07:28:58 PM 34.2386 -118.6642 353° North 230 265 9,400 1,059 Climbing Los Angeles Center
Tue 07:30:00 PM 34.3142 -118.6778 352° North 228 262 10,700 1,210 Climbing Los Angeles Center
Tue 07:31:02 PM 34.3922 -118.6908 352° North 237 273 11,900 823 Climbing Los Angeles Center
Tue 07:32:04 PM 34.4647 -118.7050 351° North 262 302 12,400 532 Climbing Los Angeles Center
Tue 07:33:06 PM 34.5325 -118.7244 347° North 253 291 13,000 290 Climbing Los Angeles Center
Tue 07:34:08 PM 34.6019 -118.7408 349° North 257 296 13,000 629 Level Los Angeles Center
Tue 07:35:10 PM 34.6686 -118.7542 351° North 239 275 14,300 1,113 Climbing Los Angeles Center
Tue 07:36:12 PM 34.7300 -118.7653 352° North 226 260 15,300 1,065 Climbing Los Angeles Center
Tue 07:37:14 PM 34.8044 -118.7822 349° North 227 261 16,500 1,016 Climbing Los Angeles Center
Tue 07:38:16 PM 34.8661 -118.7961 350° North 224 258 17,400 919 Climbing Los Angeles Center
Tue 07:39:18 PM 34.9264 -118.8083 351° North 220 253 18,400 871 Climbing Los Angeles Center
Tue 07:40:20 PM 34.9872 -118.8217 350° North 222 255 19,200 774 Climbing Los Angeles Center
Tue 07:41:22 PM 35.0500 -118.8350 350° North 226 260 20,000 871 Climbing Los Angeles Center
Tue 07:42:24 PM 35.1247 -118.8497 351° North 228 262 21,000 823 Climbing Los Angeles Center
Tue 07:43:26 PM 35.1850 -118.8619 351° North 223 257 21,700 484 Climbing Los Angeles Center
Tue 07:44:28 PM 35.2472 -118.8756 350° North 226 260 22,000 145 Climbing Los Angeles Center
Tue 07:45:30 PM 35.3147 -118.8892 351° North 239 275 22,000  Level Los Angeles Center
Tue 07:46:32 PM 35.3856 -118.9058 349° North 255 293 22,000  Level Los Angeles Center
Tue 07:47:34 PM 35.4553 -118.9203 350° North 256 295 22,000 -145 Level Los Angeles Center
Tue 07:48:36 PM 35.5369 -118.9375 350° North 251 289 21,700 -532 Descending Los Angeles Center
Tue 07:49:38 PM 35.6119 -118.9542 350° North 269 310 20,900 -794 Descending Los Angeles Center
Tue 07:50:52 PM 35.7042 -118.9731 351° North 282 325 19,900 -889 Descending Oakland Center
Tue 07:51:53 PM 35.7847 -118.9900 350° North 291 335 18,900 -984 Descending Oakland Center
Tue 07:52:54 PM 35.8664 -119.0086 350° North 297 342 17,900 -976 Descending Oakland Center
Tue 07:53:56 PM 35.9472 -119.0344 345° North 299 344 16,900 -976 Descending Oakland Center
Tue 07:54:57 PM 36.0256 -119.0731 338° Northwest 301 346 15,900 -1,082 Descending Oakland Center
Tue 07:55:58 PM 36.1194 -119.1181 339° North 303 349 14,700 -984 Descending Oakland Center
Tue 07:56:59 PM 36.1953 -119.1542 339° North 299 344 13,900 -878 Descending Oakland Center
Tue 07:58:01 PM 36.2700 -119.1894 339° North 290 334 12,900 -1,073 Descending Oakland Center
Tue 07:59:02 PM 36.3469 -119.2269 339° North 297 342 11,700 -1,180 Descending Oakland Center
Tue 08:00:03 PM 36.4247 -119.2639 339° North 300 345 10,500 -1,230 Descending Oakland Center
Tue 08:01:04 PM 36.5003 -119.3000 339° North 294 338 9,200 -1,328 Descending Oakland Center
Tue 08:02:05 PM 36.5683 -119.3528 328° Northwest 296 341 7,800 -1,366 Descending Oakland Center
Tue 08:03:07 PM 36.6136 -119.4336 305° West 286 329 6,400 -1,317 Descending Oakland Center
Tue 08:04:08 PM 36.6556 -119.5128 303° West 277 319 5,100 -1,328 Descending Oakland Center
Tue 08:05:09 PM 36.7028 -119.5903 307° West 235 270 3,700 -1,426 Descending Oakland Center
Tue 08:06:10 PM 36.7269 -119.6342 304° West 173 199 2,200 -1,475 Descending Oakland Center

Login

Don't have an account? Register now (free) for customized features, flight alerts, and more!